CYQL

Lethbridge County Airport

Airport
ICAO code
CYQL
Summary
ICAO Region
NAM
ICAO Territory
Location

Lethbridge, Alberta,

Coordinates
49° 37' 47" N , 112° 47' 25" W
KCC
Metar
Observation
CYQL 280500Z 35012KT 20SM BKN037 M05/M11 A2967 RMK SC7 LAST STFD OBS/NXT 281300Z SLP085
Station
Lethbridge, Alta.
Date/Time
2022-11-28 05:00:00
Lowest cloud amount
n/a
Temperature
°C
Dew point
0°C
Weather condition
n/a

Description

Regional airport serving Lethbridge, Alberta, Canada.

Climatology

Humid Continental climate (Köppen climate classification Dfb) - Variable weather patterns and a large seasonal temperature variance. Summers are often warm and humid with frequent thunderstorms and winters can be very cold with frequent snowfall and persistent snow cover.

Runways

Designator Length Width Surface Rops
12/30 1676 46 ASP Yes/Yes
5/23 1981 61 ASP Yes/Yes

Airport map

Aerial View

SKYbrary Partners:

Safety knowledge contributed by: